sensor_id;sensor_type;location;lat;lon;timestamp;P1;durP1;ratioP1;P2;durP2;ratioP2
46028;SDS011;31763;48.180;7.904;2022-11-20T00:01:20;14.63;;;8.15;;
46028;SDS011;31763;48.180;7.904;2022-11-20T00:03:50;15.80;;;8.48;;
46028;SDS011;31763;48.180;7.904;2022-11-20T00:06:20;18.80;;;7.68;;
46028;SDS011;31763;48.180;7.904;2022-11-20T00:08:48;11.20;;;5.57;;
46028;SDS011;31763;48.180;7.904;2022-11-20T00:11:17;17.17;;;7.78;;
46028;SDS011;31763;48.180;7.904;2022-11-20T00:13:47;12.68;;;7.43;;
46028;SDS011;31763;48.180;7.904;2022-11-20T00:16:19;11.63;;;7.43;;
46028;SDS011;31763;48.180;7.904;2022-11-20T00:18:48;13.27;;;8.15;;
46028;SDS011;31763;48.180;7.904;2022-11-20T00:21:19;13.38;;;7.28;;
46028;SDS011;31763;48.180;7.904;2022-11-20T00:23:48;17.73;;;8.60;;
46028;SDS011;31763;48.180;7.904;2022-11-20T00:26:19;13.73;;;6.45;;
46028;SDS011;31763;48.180;7.904;2022-11-20T00:28:51;15.90;;;8.52;;
46028;SDS011;31763;48.180;7.904;2022-11-20T00:31:24;14.40;;;9.02;;
46028;SDS011;31763;48.180;7.904;2022-11-20T00:33:51;10.85;;;5.80;;
46028;SDS011;31763;48.180;7.904;2022-11-20T00:36:22;14.02;;;7.07;;
46028;SDS011;31763;48.180;7.904;2022-11-20T00:38:53;13.13;;;7.25;;
46028;SDS011;31763;48.180;7.904;2022-11-20T00:41:21;11.25;;;5.75;;
46028;SDS011;31763;48.180;7.904;2022-11-20T00:43:51;9.43;;;5.50;;
46028;SDS011;31763;48.180;7.904;2022-11-20T00:46:21;16.85;;;7.70;;
46028;SDS011;31763;48.180;7.904;2022-11-20T00:48:50;9.90;;;6.35;;
46028;SDS011;31763;48.180;7.904;2022-11-20T00:51:18;13.07;;;8.50;;
46028;SDS011;31763;48.180;7.904;2022-11-20T00:56:16;11.30;;;6.88;;
46028;SDS011;31763;48.180;7.904;2022-11-20T00:58:46;11.00;;;5.00;;
46028;SDS011;31763;48.180;7.904;2022-11-20T01:01:18;10.85;;;6.68;;
46028;SDS011;31763;48.180;7.904;2022-11-20T01:03:50;10.40;;;6.97;;
46028;SDS011;31763;48.180;7.904;2022-11-20T01:06:29;6.07;;;4.28;;
46028;SDS011;31763;48.180;7.904;2022-11-20T01:09:00;9.77;;;5.53;;
46028;SDS011;31763;48.180;7.904;2022-11-20T01:11:34;11.55;;;5.18;;
46028;SDS011;31763;48.180;7.904;2022-11-20T01:14:05;13.23;;;8.23;;
46028;SDS011;31763;48.180;7.904;2022-11-20T01:16:37;11.80;;;5.90;;
46028;SDS011;31763;48.180;7.904;2022-11-20T01:19:13;13.65;;;7.18;;
46028;SDS011;31763;48.180;7.904;2022-11-20T01:21:44;10.75;;;6.25;;
46028;SDS011;31763;48.180;7.904;2022-11-20T01:24:14;9.50;;;6.05;;
46028;SDS011;31763;48.180;7.904;2022-11-20T01:26:43;11.20;;;6.68;;
46028;SDS011;31763;48.180;7.904;2022-11-20T01:29:13;9.85;;;5.85;;
46028;SDS011;31763;48.180;7.904;2022-11-20T01:31:44;14.43;;;7.95;;
46028;SDS011;31763;48.180;7.904;2022-11-20T01:34:16;12.73;;;6.72;;
46028;SDS011;31763;48.180;7.904;2022-11-20T01:36:44;11.50;;;6.55;;
46028;SDS011;31763;48.180;7.904;2022-11-20T01:39:17;14.27;;;7.55;;
46028;SDS011;31763;48.180;7.904;2022-11-20T01:41:47;13.30;;;7.68;;
46028;SDS011;31763;48.180;7.904;2022-11-20T01:44:50;12.57;;;6.63;;
46028;SDS011;31763;48.180;7.904;2022-11-20T01:47:30;15.02;;;8.40;;
46028;SDS011;31763;48.180;7.904;2022-11-20T01:50:10;13.75;;;7.35;;
46028;SDS011;31763;48.180;7.904;2022-11-20T01:52:56;16.90;;;7.55;;
46028;SDS011;31763;48.180;7.904;2022-11-20T01:55:32;12.82;;;7.30;;
46028;SDS011;31763;48.180;7.904;2022-11-20T01:58:09;13.00;;;6.10;;
46028;SDS011;31763;48.180;7.904;2022-11-20T02:00:36;15.82;;;8.80;;
46028;SDS011;31763;48.180;7.904;2022-11-20T02:03:04;13.73;;;8.30;;
46028;SDS011;31763;48.180;7.904;2022-11-20T02:08:27;12.48;;;7.32;;
46028;SDS011;31763;48.180;7.904;2022-11-20T02:10:54;18.63;;;9.15;;
46028;SDS011;31763;48.180;7.904;2022-11-20T02:13:21;17.67;;;10.13;;
46028;SDS011;31763;48.180;7.904;2022-11-20T02:16:10;19.55;;;8.68;;
46028;SDS011;31763;48.180;7.904;2022-11-20T02:18:52;16.88;;;8.95;;
46028;SDS011;31763;48.180;7.904;2022-11-20T02:21:39;15.88;;;9.18;;
46028;SDS011;31763;48.180;7.904;2022-11-20T02:24:24;12.00;;;5.70;;
46028;SDS011;31763;48.180;7.904;2022-11-20T02:27:10;17.92;;;10.38;;
46028;SDS011;31763;48.180;7.904;2022-11-20T02:29:41;18.02;;;9.95;;
46028;SDS011;31763;48.180;7.904;2022-11-20T02:32:19;16.55;;;9.32;;
46028;SDS011;31763;48.180;7.904;2022-11-20T02:34:51;18.23;;;9.80;;
46028;SDS011;31763;48.180;7.904;2022-11-20T02:37:22;17.15;;;9.32;;
46028;SDS011;31763;48.180;7.904;2022-11-20T02:39:59;12.30;;;7.45;;
46028;SDS011;31763;48.180;7.904;2022-11-20T02:42:27;9.35;;;5.35;;
46028;SDS011;31763;48.180;7.904;2022-11-20T02:47:39;17.02;;;8.57;;
46028;SDS011;31763;48.180;7.904;2022-11-20T02:50:09;9.98;;;4.88;;
46028;SDS011;31763;48.180;7.904;2022-11-20T02:52:41;17.60;;;9.85;;
46028;SDS011;31763;48.180;7.904;2022-11-20T02:55:09;22.02;;;12.40;;
46028;SDS011;31763;48.180;7.904;2022-11-20T02:57:36;17.50;;;8.60;;
46028;SDS011;31763;48.180;7.904;2022-11-20T03:00:03;16.98;;;7.65;;
46028;SDS011;31763;48.180;7.904;2022-11-20T03:02:32;15.20;;;8.90;;
46028;SDS011;31763;48.180;7.904;2022-11-20T03:04:59;15.35;;;8.60;;
46028;SDS011;31763;48.180;7.904;2022-11-20T03:07:26;19.13;;;9.95;;
46028;SDS011;31763;48.180;7.904;2022-11-20T03:09:53;13.60;;;6.22;;
46028;SDS011;31763;48.180;7.904;2022-11-20T03:12:20;13.77;;;7.10;;
46028;SDS011;31763;48.180;7.904;2022-11-20T03:14:47;12.82;;;6.75;;
46028;SDS011;31763;48.180;7.904;2022-11-20T03:19:45;11.70;;;6.97;;
46028;SDS011;31763;48.180;7.904;2022-11-20T03:22:12;18.58;;;9.98;;
46028;SDS011;31763;48.180;7.904;2022-11-20T03:24:38;16.92;;;9.60;;
46028;SDS011;31763;48.180;7.904;2022-11-20T03:27:05;19.38;;;10.32;;
46028;SDS011;31763;48.180;7.904;2022-11-20T03:29:32;19.90;;;9.98;;
46028;SDS011;31763;48.180;7.904;2022-11-20T03:31:59;17.77;;;8.88;;
46028;SDS011;31763;48.180;7.904;2022-11-20T03:34:31;16.38;;;8.95;;
46028;SDS011;31763;48.180;7.904;2022-11-20T03:37:31;11.80;;;6.47;;
46028;SDS011;31763;48.180;7.904;2022-11-20T03:40:19;16.27;;;8.98;;
46028;SDS011;31763;48.180;7.904;2022-11-20T03:43:22;17.05;;;8.07;;
46028;SDS011;31763;48.180;7.904;2022-11-20T03:46:51;14.05;;;7.55;;
46028;SDS011;31763;48.180;7.904;2022-11-20T03:49:18;8.73;;;4.85;;
46028;SDS011;31763;48.180;7.904;2022-11-20T03:52:19;9.95;;;6.15;;
46028;SDS011;31763;48.180;7.904;2022-11-20T03:54:55;16.95;;;9.75;;
46028;SDS011;31763;48.180;7.904;2022-11-20T03:57:22;13.00;;;7.90;;
46028;SDS011;31763;48.180;7.904;2022-11-20T03:59:49;16.35;;;4.90;;
46028;SDS011;31763;48.180;7.904;2022-11-20T04:02:16;12.55;;;7.38;;
46028;SDS011;31763;48.180;7.904;2022-11-20T04:04:43;14.33;;;8.03;;
46028;SDS011;31763;48.180;7.904;2022-11-20T04:07:09;12.15;;;7.60;;
46028;SDS011;31763;48.180;7.904;2022-11-20T04:09:36;10.80;;;7.80;;
46028;SDS011;31763;48.180;7.904;2022-11-20T04:12:03;15.65;;;8.73;;
46028;SDS011;31763;48.180;7.904;2022-11-20T04:14:30;5.85;;;4.10;;
46028;SDS011;31763;48.180;7.904;2022-11-20T04:16:57;8.15;;;5.20;;
46028;SDS011;31763;48.180;7.904;2022-11-20T04:19:24;10.32;;;4.10;;
46028;SDS011;31763;48.180;7.904;2022-11-20T04:21:51;12.57;;;7.20;;
46028;SDS011;31763;48.180;7.904;2022-11-20T04:24:17;12.27;;;6.93;;
46028;SDS011;31763;48.180;7.904;2022-11-20T04:26:44;5.07;;;3.78;;
46028;SDS011;31763;48.180;7.904;2022-11-20T04:29:11;11.20;;;5.03;;
46028;SDS011;31763;48.180;7.904;2022-11-20T04:31:38;9.87;;;4.73;;
46028;SDS011;31763;48.180;7.904;2022-11-20T04:34:06;11.23;;;6.97;;
46028;SDS011;31763;48.180;7.904;2022-11-20T04:36:33;20.47;;;9.10;;
46028;SDS011;31763;48.180;7.904;2022-11-20T04:39:02;12.20;;;5.50;;
46028;SDS011;31763;48.180;7.904;2022-11-20T04:41:33;11.38;;;5.70;;
46028;SDS011;31763;48.180;7.904;2022-11-20T04:44:02;13.60;;;6.85;;
46028;SDS011;31763;48.180;7.904;2022-11-20T04:46:36;10.02;;;6.53;;
46028;SDS011;31763;48.180;7.904;2022-11-20T04:49:06;8.32;;;4.60;;
46028;SDS011;31763;48.180;7.904;2022-11-20T04:51:33;8.70;;;5.68;;
46028;SDS011;31763;48.180;7.904;2022-11-20T04:54:00;15.35;;;9.15;;
46028;SDS011;31763;48.180;7.904;2022-11-20T04:56:27;14.82;;;8.70;;
46028;SDS011;31763;48.180;7.904;2022-11-20T04:58:54;9.40;;;5.05;;
46028;SDS011;31763;48.180;7.904;2022-11-20T05:01:22;13.82;;;9.30;;
46028;SDS011;31763;48.180;7.904;2022-11-20T05:03:50;19.17;;;9.23;;
46028;SDS011;31763;48.180;7.904;2022-11-20T05:06:19;14.70;;;7.28;;
46028;SDS011;31763;48.180;7.904;2022-11-20T05:08:47;12.50;;;6.38;;
46028;SDS011;31763;48.180;7.904;2022-11-20T05:11:15;11.07;;;5.68;;
46028;SDS011;31763;48.180;7.904;2022-11-20T05:16:13;9.68;;;5.13;;
46028;SDS011;31763;48.180;7.904;2022-11-20T05:18:46;11.70;;;6.00;;
46028;SDS011;31763;48.180;7.904;2022-11-20T05:21:13;8.63;;;5.18;;
46028;SDS011;31763;48.180;7.904;2022-11-20T05:23:40;10.95;;;5.68;;
46028;SDS011;31763;48.180;7.904;2022-11-20T05:26:11;12.47;;;5.57;;
46028;SDS011;31763;48.180;7.904;2022-11-20T05:28:41;11.98;;;6.97;;
46028;SDS011;31763;48.180;7.904;2022-11-20T05:31:19;8.68;;;5.32;;
46028;SDS011;31763;48.180;7.904;2022-11-20T05:33:53;10.98;;;6.35;;
46028;SDS011;31763;48.180;7.904;2022-11-20T05:36:22;6.85;;;4.72;;
46028;SDS011;31763;48.180;7.904;2022-11-20T05:38:49;10.32;;;5.90;;
46028;SDS011;31763;48.180;7.904;2022-11-20T05:41:19;5.95;;;3.38;;
46028;SDS011;31763;48.180;7.904;2022-11-20T05:43:47;6.38;;;3.47;;
46028;SDS011;31763;48.180;7.904;2022-11-20T05:46:16;8.00;;;4.75;;
46028;SDS011;31763;48.180;7.904;2022-11-20T05:48:51;14.45;;;7.97;;
46028;SDS011;31763;48.180;7.904;2022-11-20T05:51:18;8.73;;;4.88;;
46028;SDS011;31763;48.180;7.904;2022-11-20T05:53:45;4.68;;;3.08;;
46028;SDS011;31763;48.180;7.904;2022-11-20T05:56:18;7.40;;;4.30;;
46028;SDS011;31763;48.180;7.904;2022-11-20T05:58:47;6.30;;;4.17;;
46028;SDS011;31763;48.180;7.904;2022-11-20T06:01:18;13.27;;;6.67;;
46028;SDS011;31763;48.180;7.904;2022-11-20T06:03:50;12.50;;;6.70;;
46028;SDS011;31763;48.180;7.904;2022-11-20T06:06:18;7.80;;;3.90;;
46028;SDS011;31763;48.180;7.904;2022-11-20T06:08:46;10.50;;;5.27;;
46028;SDS011;31763;48.180;7.904;2022-11-20T06:11:14;6.57;;;4.47;;
46028;SDS011;31763;48.180;7.904;2022-11-20T06:13:42;4.80;;;3.05;;
46028;SDS011;31763;48.180;7.904;2022-11-20T06:16:10;11.70;;;6.17;;
46028;SDS011;31763;48.180;7.904;2022-11-20T06:18:40;4.83;;;3.57;;
46028;SDS011;31763;48.180;7.904;2022-11-20T06:21:08;11.55;;;7.03;;
46028;SDS011;31763;48.180;7.904;2022-11-20T06:23:43;7.60;;;4.72;;
46028;SDS011;31763;48.180;7.904;2022-11-20T06:26:16;6.07;;;3.63;;
46028;SDS011;31763;48.180;7.904;2022-11-20T06:28:53;7.57;;;3.88;;
46028;SDS011;31763;48.180;7.904;2022-11-20T06:31:22;7.30;;;3.72;;
46028;SDS011;31763;48.180;7.904;2022-11-20T06:33:51;8.50;;;3.87;;
46028;SDS011;31763;48.180;7.904;2022-11-20T06:36:20;11.65;;;7.13;;
46028;SDS011;31763;48.180;7.904;2022-11-20T06:38:48;5.57;;;2.83;;
46028;SDS011;31763;48.180;7.904;2022-11-20T06:41:17;8.53;;;5.33;;
46028;SDS011;31763;48.180;7.904;2022-11-20T06:43:46;8.40;;;4.30;;
46028;SDS011;31763;48.180;7.904;2022-11-20T06:46:14;6.72;;;3.50;;
46028;SDS011;31763;48.180;7.904;2022-11-20T06:51:12;13.20;;;6.20;;
46028;SDS011;31763;48.180;7.904;2022-11-20T06:53:39;7.85;;;5.38;;
46028;SDS011;31763;48.180;7.904;2022-11-20T06:56:06;7.53;;;4.88;;
46028;SDS011;31763;48.180;7.904;2022-11-20T06:58:34;7.90;;;4.80;;
46028;SDS011;31763;48.180;7.904;2022-11-20T07:01:03;9.97;;;5.47;;
46028;SDS011;31763;48.180;7.904;2022-11-20T07:06:00;12.05;;;7.40;;
46028;SDS011;31763;48.180;7.904;2022-11-20T07:08:28;5.73;;;3.60;;
46028;SDS011;31763;48.180;7.904;2022-11-20T07:10:59;10.20;;;4.88;;
46028;SDS011;31763;48.180;7.904;2022-11-20T07:13:28;8.73;;;5.55;;
46028;SDS011;31763;48.180;7.904;2022-11-20T07:15:58;4.27;;;2.90;;
46028;SDS011;31763;48.180;7.904;2022-11-20T07:18:27;6.82;;;3.30;;
46028;SDS011;31763;48.180;7.904;2022-11-20T07:20:54;10.40;;;6.25;;
46028;SDS011;31763;48.180;7.904;2022-11-20T07:23:21;5.22;;;3.00;;
46028;SDS011;31763;48.180;7.904;2022-11-20T07:25:48;7.68;;;4.50;;
46028;SDS011;31763;48.180;7.904;2022-11-20T07:28:15;7.88;;;5.05;;
46028;SDS011;31763;48.180;7.904;2022-11-20T07:30:42;10.02;;;4.95;;
46028;SDS011;31763;48.180;7.904;2022-11-20T07:33:09;9.80;;;6.53;;
46028;SDS011;31763;48.180;7.904;2022-11-20T07:35:35;6.17;;;4.17;;
46028;SDS011;31763;48.180;7.904;2022-11-20T07:38:02;3.80;;;2.60;;
46028;SDS011;31763;48.180;7.904;2022-11-20T07:40:29;9.50;;;3.28;;
46028;SDS011;31763;48.180;7.904;2022-11-20T07:42:56;7.30;;;2.92;;
46028;SDS011;31763;48.180;7.904;2022-11-20T07:45:23;5.35;;;3.95;;
46028;SDS011;31763;48.180;7.904;2022-11-20T07:47:50;6.70;;;3.67;;
46028;SDS011;31763;48.180;7.904;2022-11-20T07:50:17;7.65;;;4.68;;
46028;SDS011;31763;48.180;7.904;2022-11-20T07:52:45;3.72;;;3.38;;
46028;SDS011;31763;48.180;7.904;2022-11-20T07:55:12;8.83;;;4.90;;
46028;SDS011;31763;48.180;7.904;2022-11-20T07:57:39;4.50;;;3.40;;
46028;SDS011;31763;48.180;7.904;2022-11-20T08:00:07;4.90;;;2.92;;
46028;SDS011;31763;48.180;7.904;2022-11-20T08:02:37;7.55;;;4.50;;
46028;SDS011;31763;48.180;7.904;2022-11-20T08:05:05;5.10;;;2.43;;
46028;SDS011;31763;48.180;7.904;2022-11-20T08:07:37;6.30;;;3.70;;
46028;SDS011;31763;48.180;7.904;2022-11-20T08:10:09;7.47;;;4.37;;
46028;SDS011;31763;48.180;7.904;2022-11-20T08:12:46;11.32;;;5.30;;
46028;SDS011;31763;48.180;7.904;2022-11-20T08:15:36;9.07;;;5.05;;
46028;SDS011;31763;48.180;7.904;2022-11-20T08:18:05;5.27;;;3.87;;
46028;SDS011;31763;48.180;7.904;2022-11-20T08:20:55;8.50;;;4.37;;
46028;SDS011;31763;48.180;7.904;2022-11-20T08:23:22;8.57;;;4.95;;
46028;SDS011;31763;48.180;7.904;2022-11-20T08:25:49;7.88;;;3.80;;
46028;SDS011;31763;48.180;7.904;2022-11-20T08:28:17;7.18;;;4.80;;
46028;SDS011;31763;48.180;7.904;2022-11-20T08:30:47;4.85;;;3.22;;
46028;SDS011;31763;48.180;7.904;2022-11-20T08:33:15;6.90;;;3.58;;
46028;SDS011;31763;48.180;7.904;2022-11-20T08:35:43;3.38;;;2.78;;
46028;SDS011;31763;48.180;7.904;2022-11-20T08:38:10;8.55;;;3.95;;
46028;SDS011;31763;48.180;7.904;2022-11-20T08:40:37;5.50;;;3.72;;
46028;SDS011;31763;48.180;7.904;2022-11-20T08:43:03;6.13;;;3.10;;
46028;SDS011;31763;48.180;7.904;2022-11-20T08:45:30;8.60;;;4.13;;
46028;SDS011;31763;48.180;7.904;2022-11-20T08:48:00;7.15;;;4.00;;
46028;SDS011;31763;48.180;7.904;2022-11-20T08:50:28;4.95;;;3.78;;
46028;SDS011;31763;48.180;7.904;2022-11-20T08:53:04;11.63;;;5.93;;
46028;SDS011;31763;48.180;7.904;2022-11-20T08:55:31;7.82;;;4.10;;
46028;SDS011;31763;48.180;7.904;2022-11-20T08:58:04;4.93;;;2.00;;
46028;SDS011;31763;48.180;7.904;2022-11-20T09:00:32;9.95;;;5.88;;
46028;SDS011;31763;48.180;7.904;2022-11-20T09:03:00;7.15;;;3.72;;
46028;SDS011;31763;48.180;7.904;2022-11-20T09:05:28;9.32;;;4.78;;
46028;SDS011;31763;48.180;7.904;2022-11-20T09:07:58;8.50;;;4.50;;
46028;SDS011;31763;48.180;7.904;2022-11-20T09:10:26;4.75;;;3.60;;
46028;SDS011;31763;48.180;7.904;2022-11-20T09:12:54;12.05;;;7.50;;
46028;SDS011;31763;48.180;7.904;2022-11-20T09:15:22;58.17;;;24.73;;
46028;SDS011;31763;48.180;7.904;2022-11-20T09:17:50;38.80;;;20.10;;
46028;SDS011;31763;48.180;7.904;2022-11-20T09:20:26;8.03;;;4.77;;
46028;SDS011;31763;48.180;7.904;2022-11-20T09:22:55;9.57;;;6.70;;
46028;SDS011;31763;48.180;7.904;2022-11-20T09:25:23;6.07;;;4.47;;
46028;SDS011;31763;48.180;7.904;2022-11-20T09:27:59;7.23;;;4.27;;
46028;SDS011;31763;48.180;7.904;2022-11-20T09:30:26;8.20;;;4.43;;
46028;SDS011;31763;48.180;7.904;2022-11-20T09:32:53;6.97;;;4.68;;
46028;SDS011;31763;48.180;7.904;2022-11-20T09:35:20;8.13;;;4.80;;
46028;SDS011;31763;48.180;7.904;2022-11-20T09:37:50;12.13;;;6.53;;
46028;SDS011;31763;48.180;7.904;2022-11-20T09:40:21;10.02;;;6.53;;
46028;SDS011;31763;48.180;7.904;2022-11-20T09:45:50;13.82;;;6.18;;
46028;SDS011;31763;48.180;7.904;2022-11-20T09:49:05;12.50;;;7.40;;
46028;SDS011;31763;48.180;7.904;2022-11-20T09:52:14;11.50;;;6.60;;
46028;SDS011;31763;48.180;7.904;2022-11-20T09:55:03;9.50;;;6.90;;
46028;SDS011;31763;48.180;7.904;2022-11-20T09:57:39;11.88;;;7.05;;
46028;SDS011;31763;48.180;7.904;2022-11-20T10:00:11;7.10;;;5.00;;
46028;SDS011;31763;48.180;7.904;2022-11-20T10:03:00;6.35;;;3.55;;
46028;SDS011;31763;48.180;7.904;2022-11-20T10:08:25;7.18;;;3.55;;
46028;SDS011;31763;48.180;7.904;2022-11-20T10:17:33;7.07;;;4.68;;
46028;SDS011;31763;48.180;7.904;2022-11-20T10:25:37;12.90;;;5.95;;
46028;SDS011;31763;48.180;7.904;2022-11-20T10:31:08;7.20;;;4.38;;
46028;SDS011;31763;48.180;7.904;2022-11-20T10:35:07;9.13;;;5.32;;
46028;SDS011;31763;48.180;7.904;2022-11-20T10:37:20;6.00;;;3.42;;
46028;SDS011;31763;48.180;7.904;2022-11-20T10:39:54;6.15;;;4.07;;
46028;SDS011;31763;48.180;7.904;2022-11-20T10:42:43;4.75;;;3.20;;
46028;SDS011;31763;48.180;7.904;2022-11-20T10:47:56;6.68;;;4.07;;
46028;SDS011;31763;48.180;7.904;2022-11-20T10:50:35;5.97;;;4.03;;
46028;SDS011;31763;48.180;7.904;2022-11-20T10:53:11;8.35;;;4.82;;
46028;SDS011;31763;48.180;7.904;2022-11-20T10:55:48;8.02;;;4.22;;
46028;SDS011;31763;48.180;7.904;2022-11-20T10:58:36;8.00;;;5.15;;
46028;SDS011;31763;48.180;7.904;2022-11-20T11:01:16;7.13;;;4.18;;
46028;SDS011;31763;48.180;7.904;2022-11-20T11:03:50;7.75;;;3.60;;
46028;SDS011;31763;48.180;7.904;2022-11-20T11:09:24;6.00;;;3.53;;
46028;SDS011;31763;48.180;7.904;2022-11-20T11:12:25;6.95;;;3.25;;
46028;SDS011;31763;48.180;7.904;2022-11-20T11:15:11;7.30;;;4.95;;
46028;SDS011;31763;48.180;7.904;2022-11-20T11:18:31;9.55;;;5.68;;
46028;SDS011;31763;48.180;7.904;2022-11-20T11:21:12;6.80;;;5.57;;
46028;SDS011;31763;48.180;7.904;2022-11-20T11:24:27;7.40;;;4.28;;
46028;SDS011;31763;48.180;7.904;2022-11-20T11:27:17;5.60;;;3.40;;
46028;SDS011;31763;48.180;7.904;2022-11-20T11:30:21;5.93;;;3.47;;
46028;SDS011;31763;48.180;7.904;2022-11-20T11:33:11;7.43;;;3.78;;
46028;SDS011;31763;48.180;7.904;2022-11-20T11:36:16;6.63;;;3.10;;
46028;SDS011;31763;48.180;7.904;2022-11-20T11:38:51;5.68;;;3.65;;
46028;SDS011;31763;48.180;7.904;2022-11-20T11:41:25;7.53;;;4.22;;
46028;SDS011;31763;48.180;7.904;2022-11-20T11:44:19;6.95;;;3.67;;
46028;SDS011;31763;48.180;7.904;2022-11-20T11:50:59;4.70;;;2.20;;
46028;SDS011;31763;48.180;7.904;2022-11-20T11:53:36;5.00;;;3.28;;
46028;SDS011;31763;48.180;7.904;2022-11-20T11:56:44;6.68;;;3.60;;
46028;SDS011;31763;48.180;7.904;2022-11-20T12:05:18;6.47;;;3.47;;
46028;SDS011;31763;48.180;7.904;2022-11-20T12:08:17;4.30;;;3.03;;
46028;SDS011;31763;48.180;7.904;2022-11-20T12:13:39;4.70;;;2.28;;
46028;SDS011;31763;48.180;7.904;2022-11-20T12:19:12;5.70;;;2.47;;
46028;SDS011;31763;48.180;7.904;2022-11-20T12:25:38;2.17;;;1.42;;
46028;SDS011;31763;48.180;7.904;2022-11-20T12:28:16;6.70;;;2.22;;
46028;SDS011;31763;48.180;7.904;2022-11-20T12:36:47;1.67;;;1.30;;
46028;SDS011;31763;48.180;7.904;2022-11-20T12:39:35;4.22;;;1.65;;
46028;SDS011;31763;48.180;7.904;2022-11-20T12:42:11;2.20;;;1.70;;
46028;SDS011;31763;48.180;7.904;2022-11-20T12:48:25;1.90;;;1.15;;
46028;SDS011;31763;48.180;7.904;2022-11-20T12:53:54;2.97;;;1.17;;
46028;SDS011;31763;48.180;7.904;2022-11-20T13:08:06;0.68;;;0.63;;
46028;SDS011;31763;48.180;7.904;2022-11-20T13:16:55;2.83;;;1.00;;
46028;SDS011;31763;48.180;7.904;2022-11-20T13:19:32;2.05;;;1.40;;
46028;SDS011;31763;48.180;7.904;2022-11-20T13:22:00;0.98;;;0.60;;
46028;SDS011;31763;48.180;7.904;2022-11-20T13:24:28;5.07;;;2.33;;
46028;SDS011;31763;48.180;7.904;2022-11-20T13:27:01;1.65;;;1.00;;
46028;SDS011;31763;48.180;7.904;2022-11-20T13:29:47;2.92;;;0.70;;
46028;SDS011;31763;48.180;7.904;2022-11-20T13:33:04;2.03;;;1.20;;
46028;SDS011;31763;48.180;7.904;2022-11-20T13:35:36;1.38;;;1.25;;
46028;SDS011;31763;48.180;7.904;2022-11-20T13:38:08;1.05;;;0.75;;
46028;SDS011;31763;48.180;7.904;2022-11-20T13:40:57;3.53;;;1.73;;
46028;SDS011;31763;48.180;7.904;2022-11-20T13:43:46;2.88;;;1.23;;
46028;SDS011;31763;48.180;7.904;2022-11-20T13:46:14;2.97;;;1.70;;
46028;SDS011;31763;48.180;7.904;2022-11-20T13:48:42;1.90;;;1.08;;
46028;SDS011;31763;48.180;7.904;2022-11-20T13:57:19;3.70;;;0.95;;
46028;SDS011;31763;48.180;7.904;2022-11-20T14:00:15;4.28;;;2.05;;
46028;SDS011;31763;48.180;7.904;2022-11-20T14:03:10;1.40;;;0.95;;
46028;SDS011;31763;48.180;7.904;2022-11-20T14:05:51;4.03;;;0.95;;
46028;SDS011;31763;48.180;7.904;2022-11-20T14:08:38;0.82;;;0.70;;
46028;SDS011;31763;48.180;7.904;2022-11-20T14:14:10;5.47;;;1.27;;
46028;SDS011;31763;48.180;7.904;2022-11-20T14:16:43;6.90;;;1.63;;
46028;SDS011;31763;48.180;7.904;2022-11-20T14:19:22;3.00;;;0.73;;
46028;SDS011;31763;48.180;7.904;2022-11-20T14:24:43;2.75;;;1.45;;
46028;SDS011;31763;48.180;7.904;2022-11-20T14:27:12;2.53;;;1.23;;
46028;SDS011;31763;48.180;7.904;2022-11-20T14:29:45;2.25;;;1.02;;
46028;SDS011;31763;48.180;7.904;2022-11-20T14:32:15;2.40;;;1.25;;
46028;SDS011;31763;48.180;7.904;2022-11-20T14:34:46;3.97;;;1.30;;
46028;SDS011;31763;48.180;7.904;2022-11-20T14:37:23;3.80;;;1.40;;
46028;SDS011;31763;48.180;7.904;2022-11-20T14:39:53;5.00;;;1.30;;
46028;SDS011;31763;48.180;7.904;2022-11-20T14:42:22;2.60;;;0.90;;
46028;SDS011;31763;48.180;7.904;2022-11-20T14:44:54;3.30;;;1.17;;
46028;SDS011;31763;48.180;7.904;2022-11-20T14:47:26;1.35;;;0.77;;
46028;SDS011;31763;48.180;7.904;2022-11-20T14:49:57;2.63;;;1.17;;
46028;SDS011;31763;48.180;7.904;2022-11-20T14:52:25;0.80;;;0.55;;
46028;SDS011;31763;48.180;7.904;2022-11-20T14:54:55;2.15;;;1.17;;
46028;SDS011;31763;48.180;7.904;2022-11-20T15:02:44;2.25;;;1.23;;
46028;SDS011;31763;48.180;7.904;2022-11-20T15:05:15;2.70;;;1.13;;
46028;SDS011;31763;48.180;7.904;2022-11-20T15:07:45;1.00;;;0.90;;
46028;SDS011;31763;48.180;7.904;2022-11-20T15:10:20;2.88;;;1.20;;
46028;SDS011;31763;48.180;7.904;2022-11-20T15:12:50;2.38;;;1.20;;
46028;SDS011;31763;48.180;7.904;2022-11-20T15:15:30;5.20;;;1.67;;
46028;SDS011;31763;48.180;7.904;2022-11-20T15:18:02;6.00;;;1.45;;
46028;SDS011;31763;48.180;7.904;2022-11-20T15:20:32;1.10;;;0.85;;
46028;SDS011;31763;48.180;7.904;2022-11-20T15:23:07;3.05;;;1.88;;
46028;SDS011;31763;48.180;7.904;2022-11-20T15:25:38;2.63;;;1.52;;
46028;SDS011;31763;48.180;7.904;2022-11-20T15:28:15;4.05;;;1.85;;
46028;SDS011;31763;48.180;7.904;2022-11-20T15:30:49;4.32;;;1.90;;
46028;SDS011;31763;48.180;7.904;2022-11-20T15:33:16;6.43;;;1.67;;
46028;SDS011;31763;48.180;7.904;2022-11-20T15:35:44;5.03;;;2.00;;
46028;SDS011;31763;48.180;7.904;2022-11-20T15:38:11;6.43;;;1.70;;
46028;SDS011;31763;48.180;7.904;2022-11-20T15:40:38;2.20;;;1.58;;
46028;SDS011;31763;48.180;7.904;2022-11-20T15:43:05;4.25;;;2.38;;
46028;SDS011;31763;48.180;7.904;2022-11-20T15:45:40;2.63;;;1.27;;
46028;SDS011;31763;48.180;7.904;2022-11-20T15:48:27;4.90;;;1.60;;
46028;SDS011;31763;48.180;7.904;2022-11-20T15:50:58;2.03;;;1.27;;
46028;SDS011;31763;48.180;7.904;2022-11-20T15:53:37;3.30;;;1.53;;
46028;SDS011;31763;48.180;7.904;2022-11-20T15:56:08;1.25;;;1.10;;
46028;SDS011;31763;48.180;7.904;2022-11-20T15:58:38;3.70;;;1.63;;
46028;SDS011;31763;48.180;7.904;2022-11-20T16:01:10;5.65;;;1.65;;
46028;SDS011;31763;48.180;7.904;2022-11-20T16:03:39;10.88;;;2.63;;
46028;SDS011;31763;48.180;7.904;2022-11-20T16:06:07;3.97;;;2.03;;
46028;SDS011;31763;48.180;7.904;2022-11-20T16:08:34;1.40;;;0.90;;
46028;SDS011;31763;48.180;7.904;2022-11-20T16:11:01;4.68;;;1.25;;
46028;SDS011;31763;48.180;7.904;2022-11-20T16:13:30;4.82;;;2.88;;
46028;SDS011;31763;48.180;7.904;2022-11-20T16:16:25;7.70;;;4.07;;
46028;SDS011;31763;48.180;7.904;2022-11-20T16:18:58;4.40;;;2.65;;
46028;SDS011;31763;48.180;7.904;2022-11-20T16:21:26;3.58;;;1.70;;
46028;SDS011;31763;48.180;7.904;2022-11-20T16:24:00;1.05;;;0.88;;
46028;SDS011;31763;48.180;7.904;2022-11-20T16:26:30;5.05;;;1.58;;
46028;SDS011;31763;48.180;7.904;2022-11-20T16:28:59;6.35;;;1.45;;
46028;SDS011;31763;48.180;7.904;2022-11-20T16:31:27;1.30;;;1.17;;
46028;SDS011;31763;48.180;7.904;2022-11-20T16:33:54;4.65;;;1.55;;
46028;SDS011;31763;48.180;7.904;2022-11-20T16:36:24;2.95;;;1.52;;
46028;SDS011;31763;48.180;7.904;2022-11-20T16:38:54;6.25;;;1.83;;
46028;SDS011;31763;48.180;7.904;2022-11-20T16:41:32;2.75;;;1.75;;
46028;SDS011;31763;48.180;7.904;2022-11-20T16:44:01;1.23;;;1.10;;
46028;SDS011;31763;48.180;7.904;2022-11-20T16:46:32;1.05;;;0.70;;
46028;SDS011;31763;48.180;7.904;2022-11-20T16:49:00;1.65;;;1.55;;
46028;SDS011;31763;48.180;7.904;2022-11-20T16:51:29;2.00;;;1.15;;
46028;SDS011;31763;48.180;7.904;2022-11-20T16:54:00;3.08;;;1.40;;
46028;SDS011;31763;48.180;7.904;2022-11-20T16:56:29;2.38;;;1.50;;
46028;SDS011;31763;48.180;7.904;2022-11-20T16:58:56;2.50;;;1.33;;
46028;SDS011;31763;48.180;7.904;2022-11-20T17:01:25;1.60;;;1.20;;
46028;SDS011;31763;48.180;7.904;2022-11-20T17:03:55;1.90;;;0.85;;
46028;SDS011;31763;48.180;7.904;2022-11-20T17:06:31;1.40;;;0.80;;
46028;SDS011;31763;48.180;7.904;2022-11-20T17:09:01;4.03;;;1.53;;
46028;SDS011;31763;48.180;7.904;2022-11-20T17:11:28;2.45;;;0.98;;